sensor_id;sensor_type;location;lat;lon;timestamp;P1;durP1;ratioP1;P2;durP2;ratioP2
61741;SDS011;47650;49.848;9.620;2022-07-06T00:01:51;4.93;;;2.53;;
61741;SDS011;47650;49.848;9.620;2022-07-06T00:04:18;6.97;;;2.47;;
61741;SDS011;47650;49.848;9.620;2022-07-06T00:06:45;6.18;;;2.80;;
61741;SDS011;47650;49.848;9.620;2022-07-06T00:09:10;4.35;;;2.58;;
61741;SDS011;47650;49.848;9.620;2022-07-06T00:11:36;4.25;;;2.55;;
61741;SDS011;47650;49.848;9.620;2022-07-06T00:14:04;4.70;;;2.80;;
61741;SDS011;47650;49.848;9.620;2022-07-06T00:16:31;4.95;;;2.75;;
61741;SDS011;47650;49.848;9.620;2022-07-06T00:18:57;6.47;;;2.60;;
61741;SDS011;47650;49.848;9.620;2022-07-06T00:21:28;4.20;;;2.80;;
61741;SDS011;47650;49.848;9.620;2022-07-06T00:23:55;6.07;;;2.97;;
61741;SDS011;47650;49.848;9.620;2022-07-06T00:26:20;4.80;;;2.78;;
61741;SDS011;47650;49.848;9.620;2022-07-06T00:28:47;3.50;;;2.50;;
61741;SDS011;47650;49.848;9.620;2022-07-06T00:31:14;3.72;;;2.70;;
61741;SDS011;47650;49.848;9.620;2022-07-06T00:33:40;4.20;;;2.40;;
61741;SDS011;47650;49.848;9.620;2022-07-06T00:36:06;3.45;;;2.78;;
61741;SDS011;47650;49.848;9.620;2022-07-06T00:38:31;7.07;;;3.08;;
61741;SDS011;47650;49.848;9.620;2022-07-06T00:40:59;4.75;;;2.88;;
61741;SDS011;47650;49.848;9.620;2022-07-06T00:43:24;5.32;;;3.17;;
61741;SDS011;47650;49.848;9.620;2022-07-06T00:45:49;4.13;;;2.97;;
61741;SDS011;47650;49.848;9.620;2022-07-06T00:48:14;6.00;;;2.92;;
61741;SDS011;47650;49.848;9.620;2022-07-06T00:50:40;5.72;;;3.28;;
61741;SDS011;47650;49.848;9.620;2022-07-06T00:53:07;4.53;;;2.75;;
61741;SDS011;47650;49.848;9.620;2022-07-06T00:55:34;4.60;;;3.15;;
61741;SDS011;47650;49.848;9.620;2022-07-06T00:58:06;3.08;;;2.70;;
61741;SDS011;47650;49.848;9.620;2022-07-06T01:00:33;5.10;;;2.90;;
61741;SDS011;47650;49.848;9.620;2022-07-06T01:02:59;4.85;;;2.78;;
61741;SDS011;47650;49.848;9.620;2022-07-06T01:05:25;6.30;;;2.80;;
61741;SDS011;47650;49.848;9.620;2022-07-06T01:07:52;4.45;;;3.08;;
61741;SDS011;47650;49.848;9.620;2022-07-06T01:10:19;8.85;;;2.97;;
61741;SDS011;47650;49.848;9.620;2022-07-06T01:12:46;3.83;;;3.33;;
61741;SDS011;47650;49.848;9.620;2022-07-06T01:15:21;4.40;;;3.10;;
61741;SDS011;47650;49.848;9.620;2022-07-06T01:17:48;4.60;;;3.25;;
61741;SDS011;47650;49.848;9.620;2022-07-06T01:20:20;3.05;;;2.70;;
61741;SDS011;47650;49.848;9.620;2022-07-06T01:22:47;3.50;;;3.15;;
61741;SDS011;47650;49.848;9.620;2022-07-06T01:25:14;4.13;;;3.15;;
61741;SDS011;47650;49.848;9.620;2022-07-06T01:27:41;5.13;;;3.00;;
61741;SDS011;47650;49.848;9.620;2022-07-06T01:30:08;3.42;;;3.05;;
61741;SDS011;47650;49.848;9.620;2022-07-06T01:32:36;4.78;;;3.00;;
61741;SDS011;47650;49.848;9.620;2022-07-06T01:35:03;3.47;;;3.05;;
61741;SDS011;47650;49.848;9.620;2022-07-06T01:37:32;5.32;;;3.10;;
61741;SDS011;47650;49.848;9.620;2022-07-06T01:40:00;6.88;;;3.20;;
61741;SDS011;47650;49.848;9.620;2022-07-06T01:42:27;5.10;;;3.60;;
61741;SDS011;47650;49.848;9.620;2022-07-06T01:44:53;3.70;;;3.40;;
61741;SDS011;47650;49.848;9.620;2022-07-06T01:47:19;5.63;;;3.10;;
61741;SDS011;47650;49.848;9.620;2022-07-06T01:49:44;3.58;;;3.22;;
61741;SDS011;47650;49.848;9.620;2022-07-06T01:52:09;4.18;;;2.90;;
61741;SDS011;47650;49.848;9.620;2022-07-06T01:54:36;7.25;;;3.22;;
61741;SDS011;47650;49.848;9.620;2022-07-06T01:57:01;4.97;;;3.20;;
61741;SDS011;47650;49.848;9.620;2022-07-06T01:59:27;6.70;;;3.70;;
61741;SDS011;47650;49.848;9.620;2022-07-06T02:01:53;4.60;;;2.95;;
61741;SDS011;47650;49.848;9.620;2022-07-06T02:04:18;4.20;;;3.55;;
61741;SDS011;47650;49.848;9.620;2022-07-06T02:06:49;3.47;;;2.92;;
61741;SDS011;47650;49.848;9.620;2022-07-06T02:09:20;3.30;;;3.00;;
61741;SDS011;47650;49.848;9.620;2022-07-06T02:11:46;6.05;;;3.58;;
61741;SDS011;47650;49.848;9.620;2022-07-06T02:14:11;4.28;;;3.80;;
61741;SDS011;47650;49.848;9.620;2022-07-06T02:16:37;3.60;;;3.30;;
61741;SDS011;47650;49.848;9.620;2022-07-06T02:19:03;4.93;;;3.67;;
61741;SDS011;47650;49.848;9.620;2022-07-06T02:21:30;6.40;;;4.05;;
61741;SDS011;47650;49.848;9.620;2022-07-06T02:23:56;4.68;;;3.67;;
61741;SDS011;47650;49.848;9.620;2022-07-06T02:26:24;3.67;;;3.35;;
61741;SDS011;47650;49.848;9.620;2022-07-06T02:28:50;4.43;;;3.80;;
61741;SDS011;47650;49.848;9.620;2022-07-06T02:31:18;5.38;;;3.80;;
61741;SDS011;47650;49.848;9.620;2022-07-06T02:33:53;4.18;;;3.60;;
61741;SDS011;47650;49.848;9.620;2022-07-06T02:36:20;6.20;;;3.67;;
61741;SDS011;47650;49.848;9.620;2022-07-06T02:38:46;4.47;;;3.30;;
61741;SDS011;47650;49.848;9.620;2022-07-06T02:41:12;4.30;;;3.90;;
61741;SDS011;47650;49.848;9.620;2022-07-06T02:43:37;5.82;;;5.22;;
61741;SDS011;47650;49.848;9.620;2022-07-06T02:46:05;5.95;;;3.72;;
61741;SDS011;47650;49.848;9.620;2022-07-06T02:48:31;4.03;;;3.67;;
61741;SDS011;47650;49.848;9.620;2022-07-06T02:50:56;4.07;;;3.65;;
61741;SDS011;47650;49.848;9.620;2022-07-06T02:53:21;7.05;;;3.97;;
61741;SDS011;47650;49.848;9.620;2022-07-06T02:55:46;6.25;;;3.97;;
61741;SDS011;47650;49.848;9.620;2022-07-06T02:58:17;4.82;;;3.60;;
61741;SDS011;47650;49.848;9.620;2022-07-06T03:00:42;4.95;;;3.85;;
61741;SDS011;47650;49.848;9.620;2022-07-06T03:03:09;3.90;;;3.50;;
61741;SDS011;47650;49.848;9.620;2022-07-06T03:05:35;5.90;;;3.22;;
61741;SDS011;47650;49.848;9.620;2022-07-06T03:08:00;3.83;;;3.50;;
61741;SDS011;47650;49.848;9.620;2022-07-06T03:10:27;4.68;;;3.75;;
61741;SDS011;47650;49.848;9.620;2022-07-06T03:12:53;4.53;;;3.53;;
61741;SDS011;47650;49.848;9.620;2022-07-06T03:15:20;4.03;;;3.63;;
61741;SDS011;47650;49.848;9.620;2022-07-06T03:17:48;3.88;;;3.47;;
61741;SDS011;47650;49.848;9.620;2022-07-06T03:20:19;3.85;;;3.55;;
61741;SDS011;47650;49.848;9.620;2022-07-06T03:22:44;3.05;;;2.72;;
61741;SDS011;47650;49.848;9.620;2022-07-06T03:25:12;3.85;;;3.08;;
61741;SDS011;47650;49.848;9.620;2022-07-06T03:27:37;3.30;;;3.00;;
61741;SDS011;47650;49.848;9.620;2022-07-06T03:30:02;4.75;;;3.40;;
61741;SDS011;47650;49.848;9.620;2022-07-06T03:32:29;3.95;;;3.38;;
61741;SDS011;47650;49.848;9.620;2022-07-06T03:35:03;3.55;;;3.25;;
61741;SDS011;47650;49.848;9.620;2022-07-06T03:37:28;4.97;;;3.63;;
61741;SDS011;47650;49.848;9.620;2022-07-06T03:39:56;3.40;;;3.10;;
61741;SDS011;47650;49.848;9.620;2022-07-06T03:42:21;3.38;;;3.00;;
61741;SDS011;47650;49.848;9.620;2022-07-06T03:44:47;6.35;;;3.20;;
61741;SDS011;47650;49.848;9.620;2022-07-06T03:47:13;5.30;;;3.50;;
61741;SDS011;47650;49.848;9.620;2022-07-06T03:49:38;3.63;;;3.33;;
61741;SDS011;47650;49.848;9.620;2022-07-06T03:52:03;6.00;;;3.17;;
61741;SDS011;47650;49.848;9.620;2022-07-06T03:54:32;4.60;;;3.13;;
61741;SDS011;47650;49.848;9.620;2022-07-06T03:56:57;3.80;;;3.50;;
61741;SDS011;47650;49.848;9.620;2022-07-06T03:59:23;4.30;;;3.35;;
61741;SDS011;47650;49.848;9.620;2022-07-06T04:04:24;5.43;;;4.13;;
61741;SDS011;47650;49.848;9.620;2022-07-06T04:06:50;5.80;;;4.30;;
61741;SDS011;47650;49.848;9.620;2022-07-06T04:09:22;5.20;;;3.53;;
61741;SDS011;47650;49.848;9.620;2022-07-06T04:11:47;6.00;;;4.30;;
61741;SDS011;47650;49.848;9.620;2022-07-06T04:14:12;5.30;;;4.68;;
61741;SDS011;47650;49.848;9.620;2022-07-06T04:16:39;4.75;;;3.83;;
61741;SDS011;47650;49.848;9.620;2022-07-06T04:19:04;6.30;;;4.43;;
61741;SDS011;47650;49.848;9.620;2022-07-06T04:21:31;7.50;;;5.80;;
61741;SDS011;47650;49.848;9.620;2022-07-06T04:23:57;11.13;;;9.07;;
61741;SDS011;47650;49.848;9.620;2022-07-06T04:26:30;15.85;;;11.65;;
61741;SDS011;47650;49.848;9.620;2022-07-06T04:28:56;25.65;;;19.38;;
61741;SDS011;47650;49.848;9.620;2022-07-06T04:31:22;36.22;;;24.42;;
61741;SDS011;47650;49.848;9.620;2022-07-06T04:33:47;29.63;;;23.00;;
61741;SDS011;47650;49.848;9.620;2022-07-06T04:36:13;26.02;;;17.85;;
61741;SDS011;47650;49.848;9.620;2022-07-06T04:38:38;16.08;;;10.63;;
61741;SDS011;47650;49.848;9.620;2022-07-06T04:41:03;10.93;;;7.97;;
61741;SDS011;47650;49.848;9.620;2022-07-06T04:43:29;7.97;;;5.93;;
61741;SDS011;47650;49.848;9.620;2022-07-06T04:45:54;7.60;;;5.47;;
61741;SDS011;47650;49.848;9.620;2022-07-06T04:48:19;10.68;;;4.78;;
61741;SDS011;47650;49.848;9.620;2022-07-06T04:50:46;12.20;;;5.40;;
61741;SDS011;47650;49.848;9.620;2022-07-06T04:53:11;8.68;;;4.82;;
61741;SDS011;47650;49.848;9.620;2022-07-06T04:55:37;5.13;;;3.60;;
61741;SDS011;47650;49.848;9.620;2022-07-06T04:58:03;6.25;;;3.00;;
61741;SDS011;47650;49.848;9.620;2022-07-06T05:00:28;4.88;;;2.60;;
61741;SDS011;47650;49.848;9.620;2022-07-06T05:02:56;7.20;;;3.53;;
61741;SDS011;47650;49.848;9.620;2022-07-06T05:05:21;4.55;;;3.40;;
61741;SDS011;47650;49.848;9.620;2022-07-06T05:07:55;4.03;;;3.45;;
61741;SDS011;47650;49.848;9.620;2022-07-06T05:10:22;6.13;;;4.20;;
61741;SDS011;47650;49.848;9.620;2022-07-06T05:12:56;4.35;;;3.95;;
61741;SDS011;47650;49.848;9.620;2022-07-06T05:15:31;6.45;;;3.40;;
61741;SDS011;47650;49.848;9.620;2022-07-06T05:17:56;7.95;;;3.80;;
61741;SDS011;47650;49.848;9.620;2022-07-06T05:20:22;5.38;;;3.55;;
61741;SDS011;47650;49.848;9.620;2022-07-06T05:22:47;4.18;;;3.30;;
61741;SDS011;47650;49.848;9.620;2022-07-06T05:25:13;5.30;;;3.10;;
61741;SDS011;47650;49.848;9.620;2022-07-06T05:27:39;5.32;;;3.17;;
61741;SDS011;47650;49.848;9.620;2022-07-06T05:30:05;4.45;;;2.70;;
61741;SDS011;47650;49.848;9.620;2022-07-06T05:32:32;4.38;;;3.10;;
61741;SDS011;47650;49.848;9.620;2022-07-06T05:34:57;4.72;;;2.50;;
61741;SDS011;47650;49.848;9.620;2022-07-06T05:37:22;3.42;;;2.50;;
61741;SDS011;47650;49.848;9.620;2022-07-06T05:39:48;5.35;;;2.40;;
61741;SDS011;47650;49.848;9.620;2022-07-06T05:42:16;5.82;;;2.67;;
61741;SDS011;47650;49.848;9.620;2022-07-06T05:44:41;6.10;;;3.20;;
61741;SDS011;47650;49.848;9.620;2022-07-06T05:47:06;2.60;;;2.20;;
61741;SDS011;47650;49.848;9.620;2022-07-06T05:49:50;4.15;;;2.35;;
61741;SDS011;47650;49.848;9.620;2022-07-06T05:52:35;2.78;;;1.70;;
61741;SDS011;47650;49.848;9.620;2022-07-06T05:55:03;4.45;;;1.80;;
61741;SDS011;47650;49.848;9.620;2022-07-06T05:57:28;4.72;;;2.08;;
61741;SDS011;47650;49.848;9.620;2022-07-06T05:59:53;3.70;;;1.98;;
61741;SDS011;47650;49.848;9.620;2022-07-06T06:02:19;5.00;;;2.22;;
61741;SDS011;47650;49.848;9.620;2022-07-06T06:04:44;7.05;;;2.10;;
61741;SDS011;47650;49.848;9.620;2022-07-06T06:07:09;2.55;;;2.13;;
61741;SDS011;47650;49.848;9.620;2022-07-06T06:09:35;6.13;;;2.30;;
61741;SDS011;47650;49.848;9.620;2022-07-06T06:12:00;2.50;;;2.20;;
61741;SDS011;47650;49.848;9.620;2022-07-06T06:14:25;6.10;;;2.05;;
61741;SDS011;47650;49.848;9.620;2022-07-06T06:16:52;3.53;;;1.98;;
61741;SDS011;47650;49.848;9.620;2022-07-06T06:19:26;3.22;;;1.90;;
61741;SDS011;47650;49.848;9.620;2022-07-06T06:21:51;3.45;;;1.90;;
61741;SDS011;47650;49.848;9.620;2022-07-06T06:24:19;2.53;;;1.70;;
61741;SDS011;47650;49.848;9.620;2022-07-06T06:26:44;6.13;;;1.90;;
61741;SDS011;47650;49.848;9.620;2022-07-06T06:29:09;3.65;;;1.98;;
61741;SDS011;47650;49.848;9.620;2022-07-06T06:31:37;8.23;;;2.10;;
61741;SDS011;47650;49.848;9.620;2022-07-06T06:34:02;5.82;;;2.05;;
61741;SDS011;47650;49.848;9.620;2022-07-06T06:36:29;4.90;;;2.08;;
61741;SDS011;47650;49.848;9.620;2022-07-06T06:38:55;4.15;;;2.17;;
61741;SDS011;47650;49.848;9.620;2022-07-06T06:41:20;4.45;;;2.53;;
61741;SDS011;47650;49.848;9.620;2022-07-06T06:43:45;3.30;;;2.17;;
61741;SDS011;47650;49.848;9.620;2022-07-06T06:46:11;3.78;;;2.30;;
61741;SDS011;47650;49.848;9.620;2022-07-06T06:48:37;4.95;;;2.10;;
61741;SDS011;47650;49.848;9.620;2022-07-06T06:51:03;4.95;;;1.90;;
61741;SDS011;47650;49.848;9.620;2022-07-06T06:53:30;4.13;;;1.85;;
61741;SDS011;47650;49.848;9.620;2022-07-06T06:55:56;5.80;;;2.10;;
61741;SDS011;47650;49.848;9.620;2022-07-06T06:58:21;4.63;;;2.03;;
61741;SDS011;47650;49.848;9.620;2022-07-06T07:00:49;2.40;;;1.63;;
61741;SDS011;47650;49.848;9.620;2022-07-06T07:03:16;3.03;;;1.70;;
61741;SDS011;47650;49.848;9.620;2022-07-06T07:08:30;3.53;;;1.42;;
61741;SDS011;47650;49.848;9.620;2022-07-06T07:11:11;3.90;;;2.05;;
61741;SDS011;47650;49.848;9.620;2022-07-06T07:13:44;3.92;;;2.13;;
61741;SDS011;47650;49.848;9.620;2022-07-06T07:16:09;4.47;;;2.10;;
61741;SDS011;47650;49.848;9.620;2022-07-06T07:18:34;6.97;;;2.13;;
61741;SDS011;47650;49.848;9.620;2022-07-06T07:21:05;3.55;;;1.88;;
61741;SDS011;47650;49.848;9.620;2022-07-06T07:23:32;3.70;;;1.85;;
61741;SDS011;47650;49.848;9.620;2022-07-06T07:25:58;4.28;;;1.63;;
61741;SDS011;47650;49.848;9.620;2022-07-06T07:28:25;5.03;;;2.00;;
61741;SDS011;47650;49.848;9.620;2022-07-06T07:30:51;2.90;;;1.85;;
61741;SDS011;47650;49.848;9.620;2022-07-06T07:33:17;3.53;;;1.58;;
61741;SDS011;47650;49.848;9.620;2022-07-06T07:35:44;4.45;;;2.10;;
61741;SDS011;47650;49.848;9.620;2022-07-06T07:38:10;4.40;;;1.70;;
61741;SDS011;47650;49.848;9.620;2022-07-06T07:40:36;4.72;;;1.80;;
61741;SDS011;47650;49.848;9.620;2022-07-06T07:43:04;4.32;;;1.75;;
61741;SDS011;47650;49.848;9.620;2022-07-06T07:45:29;4.25;;;1.85;;
61741;SDS011;47650;49.848;9.620;2022-07-06T07:47:54;3.15;;;1.60;;
61741;SDS011;47650;49.848;9.620;2022-07-06T07:50:20;3.30;;;1.90;;
61741;SDS011;47650;49.848;9.620;2022-07-06T07:52:45;5.20;;;1.80;;
61741;SDS011;47650;49.848;9.620;2022-07-06T07:55:13;3.88;;;2.28;;
61741;SDS011;47650;49.848;9.620;2022-07-06T07:57:38;5.75;;;1.77;;
61741;SDS011;47650;49.848;9.620;2022-07-06T08:00:04;4.28;;;1.92;;
61741;SDS011;47650;49.848;9.620;2022-07-06T08:02:30;3.42;;;1.92;;
61741;SDS011;47650;49.848;9.620;2022-07-06T08:04:56;4.22;;;1.70;;
61741;SDS011;47650;49.848;9.620;2022-07-06T08:07:21;3.22;;;2.05;;
61741;SDS011;47650;49.848;9.620;2022-07-06T08:09:51;3.63;;;1.65;;
61741;SDS011;47650;49.848;9.620;2022-07-06T08:12:17;5.22;;;1.92;;
61741;SDS011;47650;49.848;9.620;2022-07-06T08:14:42;4.00;;;1.60;;
61741;SDS011;47650;49.848;9.620;2022-07-06T08:17:09;4.55;;;2.10;;
61741;SDS011;47650;49.848;9.620;2022-07-06T08:19:35;4.45;;;1.65;;
61741;SDS011;47650;49.848;9.620;2022-07-06T08:22:01;3.80;;;1.80;;
61741;SDS011;47650;49.848;9.620;2022-07-06T08:24:31;3.10;;;1.50;;
61741;SDS011;47650;49.848;9.620;2022-07-06T08:27:07;4.80;;;2.15;;
61741;SDS011;47650;49.848;9.620;2022-07-06T08:29:32;5.45;;;2.00;;
61741;SDS011;47650;49.848;9.620;2022-07-06T08:32:15;5.35;;;2.50;;
61741;SDS011;47650;49.848;9.620;2022-07-06T08:34:48;6.28;;;2.33;;
61741;SDS011;47650;49.848;9.620;2022-07-06T08:37:23;4.10;;;2.00;;
61741;SDS011;47650;49.848;9.620;2022-07-06T08:39:50;3.25;;;1.88;;
61741;SDS011;47650;49.848;9.620;2022-07-06T08:42:21;3.38;;;1.70;;
61741;SDS011;47650;49.848;9.620;2022-07-06T08:44:58;3.15;;;1.70;;
61741;SDS011;47650;49.848;9.620;2022-07-06T08:47:25;4.90;;;1.75;;
61741;SDS011;47650;49.848;9.620;2022-07-06T08:49:51;4.35;;;1.52;;
61741;SDS011;47650;49.848;9.620;2022-07-06T08:52:26;5.25;;;2.08;;
61741;SDS011;47650;49.848;9.620;2022-07-06T08:55:08;5.07;;;1.88;;
61741;SDS011;47650;49.848;9.620;2022-07-06T08:57:35;2.85;;;1.90;;
61741;SDS011;47650;49.848;9.620;2022-07-06T09:00:00;7.75;;;2.55;;
61741;SDS011;47650;49.848;9.620;2022-07-06T09:02:27;7.38;;;2.47;;
61741;SDS011;47650;49.848;9.620;2022-07-06T09:04:56;4.93;;;3.55;;
61741;SDS011;47650;49.848;9.620;2022-07-06T09:07:22;6.90;;;3.10;;
61741;SDS011;47650;49.848;9.620;2022-07-06T09:09:52;4.90;;;3.13;;
61741;SDS011;47650;49.848;9.620;2022-07-06T09:12:21;3.20;;;2.63;;
61741;SDS011;47650;49.848;9.620;2022-07-06T09:14:49;4.60;;;2.95;;
61741;SDS011;47650;49.848;9.620;2022-07-06T09:17:14;4.22;;;2.67;;
61741;SDS011;47650;49.848;9.620;2022-07-06T09:19:42;3.22;;;1.73;;
61741;SDS011;47650;49.848;9.620;2022-07-06T09:22:11;3.25;;;1.85;;
61741;SDS011;47650;49.848;9.620;2022-07-06T09:25:00;8.70;;;2.22;;
61741;SDS011;47650;49.848;9.620;2022-07-06T09:27:45;3.42;;;1.90;;
61741;SDS011;47650;49.848;9.620;2022-07-06T09:30:12;2.60;;;1.58;;
61741;SDS011;47650;49.848;9.620;2022-07-06T09:32:44;3.85;;;2.72;;
61741;SDS011;47650;49.848;9.620;2022-07-06T09:38:33;5.85;;;2.03;;
61741;SDS011;47650;49.848;9.620;2022-07-06T09:47:54;3.85;;;1.95;;
61741;SDS011;47650;49.848;9.620;2022-07-06T09:50:25;4.80;;;4.30;;
61741;SDS011;47650;49.848;9.620;2022-07-06T09:52:54;6.50;;;6.07;;
61741;SDS011;47650;49.848;9.620;2022-07-06T09:55:21;5.55;;;5.05;;
61741;SDS011;47650;49.848;9.620;2022-07-06T09:57:53;3.42;;;2.10;;
61741;SDS011;47650;49.848;9.620;2022-07-06T10:00:20;3.45;;;1.85;;
61741;SDS011;47650;49.848;9.620;2022-07-06T10:02:46;3.38;;;2.00;;
61741;SDS011;47650;49.848;9.620;2022-07-06T10:05:14;4.32;;;1.80;;
61741;SDS011;47650;49.848;9.620;2022-07-06T10:07:42;4.05;;;2.00;;
61741;SDS011;47650;49.848;9.620;2022-07-06T10:13:47;5.05;;;4.63;;
61741;SDS011;47650;49.848;9.620;2022-07-06T10:16:17;5.28;;;4.00;;
61741;SDS011;47650;49.848;9.620;2022-07-06T10:18:42;4.72;;;4.32;;
61741;SDS011;47650;49.848;9.620;2022-07-06T10:21:08;4.38;;;1.98;;
61741;SDS011;47650;49.848;9.620;2022-07-06T10:23:35;6.88;;;4.43;;
61741;SDS011;47650;49.848;9.620;2022-07-06T10:26:09;5.57;;;2.00;;
61741;SDS011;47650;49.848;9.620;2022-07-06T10:28:35;6.60;;;3.35;;
61741;SDS011;47650;49.848;9.620;2022-07-06T10:31:00;3.63;;;2.95;;
61741;SDS011;47650;49.848;9.620;2022-07-06T10:33:28;3.60;;;3.30;;
61741;SDS011;47650;49.848;9.620;2022-07-06T10:35:55;3.40;;;3.10;;
61741;SDS011;47650;49.848;9.620;2022-07-06T10:38:29;3.03;;;2.40;;
61741;SDS011;47650;49.848;9.620;2022-07-06T10:41:07;3.67;;;3.05;;
61741;SDS011;47650;49.848;9.620;2022-07-06T10:43:45;3.35;;;2.92;;
61741;SDS011;47650;49.848;9.620;2022-07-06T10:48:45;5.13;;;1.90;;
61741;SDS011;47650;49.848;9.620;2022-07-06T10:51:13;4.15;;;1.70;;
61741;SDS011;47650;49.848;9.620;2022-07-06T10:53:49;6.00;;;2.67;;
61741;SDS011;47650;49.848;9.620;2022-07-06T10:56:36;5.28;;;2.45;;
61741;SDS011;47650;49.848;9.620;2022-07-06T10:59:08;5.72;;;2.50;;
61741;SDS011;47650;49.848;9.620;2022-07-06T11:01:35;5.10;;;3.60;;
61741;SDS011;47650;49.848;9.620;2022-07-06T11:06:31;4.97;;;2.60;;
61741;SDS011;47650;49.848;9.620;2022-07-06T11:11:38;6.53;;;3.35;;
61741;SDS011;47650;49.848;9.620;2022-07-06T11:14:17;3.70;;;2.47;;
61741;SDS011;47650;49.848;9.620;2022-07-06T11:19:20;4.10;;;2.35;;
61741;SDS011;47650;49.848;9.620;2022-07-06T11:24:18;3.50;;;2.40;;
61741;SDS011;47650;49.848;9.620;2022-07-06T11:26:47;4.72;;;2.20;;
61741;SDS011;47650;49.848;9.620;2022-07-06T11:29:26;4.07;;;2.17;;
61741;SDS011;47650;49.848;9.620;2022-07-06T11:31:58;5.25;;;1.90;;
61741;SDS011;47650;49.848;9.620;2022-07-06T11:34:33;4.20;;;2.50;;
61741;SDS011;47650;49.848;9.620;2022-07-06T11:37:03;2.35;;;1.50;;
61741;SDS011;47650;49.848;9.620;2022-07-06T11:39:33;2.65;;;1.50;;
61741;SDS011;47650;49.848;9.620;2022-07-06T11:42:00;5.07;;;1.98;;
61741;SDS011;47650;49.848;9.620;2022-07-06T11:44:26;3.67;;;2.60;;
61741;SDS011;47650;49.848;9.620;2022-07-06T11:47:01;3.70;;;2.65;;
61741;SDS011;47650;49.848;9.620;2022-07-06T11:49:28;4.85;;;2.47;;
61741;SDS011;47650;49.848;9.620;2022-07-06T11:52:09;5.47;;;2.85;;
61741;SDS011;47650;49.848;9.620;2022-07-06T11:54:37;2.33;;;2.10;;
61741;SDS011;47650;49.848;9.620;2022-07-06T11:57:03;6.43;;;2.85;;
61741;SDS011;47650;49.848;9.620;2022-07-06T11:59:36;4.22;;;2.10;;
61741;SDS011;47650;49.848;9.620;2022-07-06T12:04:36;3.25;;;1.90;;
61741;SDS011;47650;49.848;9.620;2022-07-06T12:07:12;2.63;;;2.00;;
61741;SDS011;47650;49.848;9.620;2022-07-06T12:09:39;2.72;;;1.95;;
61741;SDS011;47650;49.848;9.620;2022-07-06T12:12:06;2.83;;;1.75;;
61741;SDS011;47650;49.848;9.620;2022-07-06T12:14:51;32.05;;;3.35;;
61741;SDS011;47650;49.848;9.620;2022-07-06T12:17:17;14.05;;;3.05;;
61741;SDS011;47650;49.848;9.620;2022-07-06T12:19:44;18.40;;;3.25;;
61741;SDS011;47650;49.848;9.620;2022-07-06T12:22:09;3.67;;;1.73;;
61741;SDS011;47650;49.848;9.620;2022-07-06T12:24:45;2.63;;;2.10;;
61741;SDS011;47650;49.848;9.620;2022-07-06T12:27:16;2.72;;;1.90;;
61741;SDS011;47650;49.848;9.620;2022-07-06T12:30:04;3.95;;;2.08;;
61741;SDS011;47650;49.848;9.620;2022-07-06T12:32:33;2.80;;;2.20;;
61741;SDS011;47650;49.848;9.620;2022-07-06T12:35:05;3.00;;;1.77;;
61741;SDS011;47650;49.848;9.620;2022-07-06T12:37:33;2.88;;;1.40;;
61741;SDS011;47650;49.848;9.620;2022-07-06T12:40:00;3.22;;;1.83;;
61741;SDS011;47650;49.848;9.620;2022-07-06T12:42:27;4.95;;;2.08;;
61741;SDS011;47650;49.848;9.620;2022-07-06T12:44:55;6.15;;;2.00;;
61741;SDS011;47650;49.848;9.620;2022-07-06T12:47:25;6.13;;;1.80;;
61741;SDS011;47650;49.848;9.620;2022-07-06T12:52:33;3.70;;;1.80;;
61741;SDS011;47650;49.848;9.620;2022-07-06T12:55:00;3.55;;;2.20;;
61741;SDS011;47650;49.848;9.620;2022-07-06T12:57:26;6.13;;;2.00;;
61741;SDS011;47650;49.848;9.620;2022-07-06T13:02:29;3.63;;;1.83;;
61741;SDS011;47650;49.848;9.620;2022-07-06T13:05:00;3.80;;;2.05;;
61741;SDS011;47650;49.848;9.620;2022-07-06T13:07:35;2.53;;;1.83;;
61741;SDS011;47650;49.848;9.620;2022-07-06T13:10:08;4.18;;;2.00;;
61741;SDS011;47650;49.848;9.620;2022-07-06T13:12:43;2.83;;;1.70;;
61741;SDS011;47650;49.848;9.620;2022-07-06T13:15:09;2.33;;;1.80;;
61741;SDS011;47650;49.848;9.620;2022-07-06T13:17:34;2.75;;;1.90;;
61741;SDS011;47650;49.848;9.620;2022-07-06T13:20:06;5.88;;;2.13;;
61741;SDS011;47650;49.848;9.620;2022-07-06T13:22:34;4.30;;;2.28;;
61741;SDS011;47650;49.848;9.620;2022-07-06T13:24:59;3.67;;;1.90;;
61741;SDS011;47650;49.848;9.620;2022-07-06T13:27:25;5.38;;;2.60;;
61741;SDS011;47650;49.848;9.620;2022-07-06T13:29:50;7.47;;;2.13;;
61741;SDS011;47650;49.848;9.620;2022-07-06T13:32:16;3.60;;;1.90;;
61741;SDS011;47650;49.848;9.620;2022-07-06T13:34:44;3.00;;;1.98;;
61741;SDS011;47650;49.848;9.620;2022-07-06T13:37:10;3.35;;;2.22;;
61741;SDS011;47650;49.848;9.620;2022-07-06T13:39:35;3.85;;;2.13;;
61741;SDS011;47650;49.848;9.620;2022-07-06T13:42:08;7.78;;;2.00;;
61741;SDS011;47650;49.848;9.620;2022-07-06T13:44:35;2.78;;;1.70;;
61741;SDS011;47650;49.848;9.620;2022-07-06T13:47:03;5.65;;;1.83;;
61741;SDS011;47650;49.848;9.620;2022-07-06T13:49:28;4.25;;;2.05;;
61741;SDS011;47650;49.848;9.620;2022-07-06T13:54:29;2.97;;;1.90;;
61741;SDS011;47650;49.848;9.620;2022-07-06T13:56:55;4.50;;;2.50;;
61741;SDS011;47650;49.848;9.620;2022-07-06T13:59:21;3.13;;;2.30;;
61741;SDS011;47650;49.848;9.620;2022-07-06T14:01:49;3.30;;;2.38;;
61741;SDS011;47650;49.848;9.620;2022-07-06T14:04:22;4.25;;;2.30;;
61741;SDS011;47650;49.848;9.620;2022-07-06T14:06:57;5.20;;;2.28;;
61741;SDS011;47650;49.848;9.620;2022-07-06T14:09:30;5.95;;;2.40;;
61741;SDS011;47650;49.848;9.620;2022-07-06T14:11:57;3.70;;;2.20;;
61741;SDS011;47650;49.848;9.620;2022-07-06T14:14:29;4.43;;;2.00;;
61741;SDS011;47650;49.848;9.620;2022-07-06T14:16:54;4.40;;;2.60;;
61741;SDS011;47650;49.848;9.620;2022-07-06T14:19:23;3.72;;;2.17;;
61741;SDS011;47650;49.848;9.620;2022-07-06T14:21:49;5.07;;;2.45;;
61741;SDS011;47650;49.848;9.620;2022-07-06T14:24:14;2.90;;;2.30;;
61741;SDS011;47650;49.848;9.620;2022-07-06T14:26:40;3.22;;;2.45;;
61741;SDS011;47650;49.848;9.620;2022-07-06T14:29:11;3.28;;;2.20;;
61741;SDS011;47650;49.848;9.620;2022-07-06T14:31:37;4.57;;;2.30;;
61741;SDS011;47650;49.848;9.620;2022-07-06T14:34:02;4.53;;;2.85;;
61741;SDS011;47650;49.848;9.620;2022-07-06T14:36:27;5.03;;;2.53;;
61741;SDS011;47650;49.848;9.620;2022-07-06T14:38:54;3.47;;;2.17;;
61741;SDS011;47650;49.848;9.620;2022-07-06T14:41:19;3.83;;;2.05;;
61741;SDS011;47650;49.848;9.620;2022-07-06T14:43:45;2.83;;;2.43;;
61741;SDS011;47650;49.848;9.620;2022-07-06T14:46:10;8.98;;;2.00;;
61741;SDS011;47650;49.848;9.620;2022-07-06T14:48:36;4.47;;;1.98;;
61741;SDS011;47650;49.848;9.620;2022-07-06T14:51:02;5.13;;;2.10;;
61741;SDS011;47650;49.848;9.620;2022-07-06T14:53:27;2.88;;;2.20;;
61741;SDS011;47650;49.848;9.620;2022-07-06T14:55:53;2.83;;;1.80;;
61741;SDS011;47650;49.848;9.620;2022-07-06T14:58:18;4.00;;;2.17;;
61741;SDS011;47650;49.848;9.620;2022-07-06T15:00:44;5.20;;;2.20;;
61741;SDS011;47650;49.848;9.620;2022-07-06T15:03:10;4.30;;;2.00;;
61741;SDS011;47650;49.848;9.620;2022-07-06T15:05:36;3.40;;;2.10;;
61741;SDS011;47650;49.848;9.620;2022-07-06T15:08:05;4.25;;;1.95;;
61741;SDS011;47650;49.848;9.620;2022-07-06T15:10:31;4.55;;;1.90;;
61741;SDS011;47650;49.848;9.620;2022-07-06T15:12:56;3.35;;;1.80;;
61741;SDS011;47650;49.848;9.620;2022-07-06T15:15:23;2.80;;;2.23;;
61741;SDS011;47650;49.848;9.620;2022-07-06T15:17:48;2.88;;;2.13;;
61741;SDS011;47650;49.848;9.620;2022-07-06T15:20:15;4.55;;;1.80;;
61741;SDS011;47650;49.848;9.620;2022-07-06T15:22:41;2.88;;;1.98;;
61741;SDS011;47650;49.848;9.620;2022-07-06T15:25:07;2.45;;;1.88;;
61741;SDS011;47650;49.848;9.620;2022-07-06T15:27:33;3.28;;;1.75;;
61741;SDS011;47650;49.848;9.620;2022-07-06T15:29:58;6.15;;;2.22;;
61741;SDS011;47650;49.848;9.620;2022-07-06T15:32:24;4.35;;;1.90;;
61741;SDS011;47650;49.848;9.620;2022-07-06T15:34:50;3.72;;;2.00;;